Terminal Aerodrome Forecast
Issued by NWS Wilmington, OH

Current Version | Previous Version | Text Only | Print | Product List | Glossary Off
Versions: 1 2 3 4 5 6 7 8 9 10 11 12 13 14 15 16 17 18 19 20 21 22 23 24 25

000
FTUS41 KILN 152235 AAC
TAFILN
TAF AMD
KILN 152235Z 1523/1618 21012G20KT P6SM VCSH BKN025
     FM160100 23013G22KT P6SM VCTS OVC025CB
      TEMPO 1601/1604 4SM SHRA OVC025
     FM160500 25013G22KT 1 1/2SM SHRA OVC008
     FM160700 24013G21KT 3SM SHRA OVC015
     FM161000 31010KT 5SM -SHRA OVC015
     FM161300 34010KT P6SM VCSH OVC015=

USA.gov is the U.S. government's official web portal to all federal, state and local government web resources and services.